Time;durP1;ratioP1;P1;durP2;ratioP2;P2;SDS_P1;SDS_P2;PMS_P1;PMS_P2;Temp;Humidity;BMP_temperature;BMP_pressure;BME280_temperature;BME280_humidity;BME280_pressure;Samples;Min_cycle;Max_cycle;Signal;HPM_P1;HPM_P2
2022/04/02 00:00:28;;;;;;;;;;;1.30;99.90;;;;;;5175796;27;19923;-68
2022/04/02 00:02:54;;;;;;;;;;;1.30;99.90;;;;;;5175759;27;20381;-68
2022/04/02 00:05:20;;;;;;;;;;;2.70;99.90;;;;;;5176078;27;19926;-69
2022/04/02 00:07:45;;;;;;;;;;;1.60;99.90;;;;;;5175999;27;20373;-68
2022/04/02 00:10:11;;;;;;;;;;;2.30;99.90;;;;;;5175583;27;20293;-68
2022/04/02 00:12:36;;;;;;;;;;;1.30;99.90;;;;;;5157519;27;19968;-70
2022/04/02 00:15:03;;;;;;;;;;;2.60;99.90;;;;;;5176194;27;20339;-69
2022/04/02 00:17:28;;;;;;;;;;;1.40;99.90;;;;;;5179599;27;19981;-69
2022/04/02 00:19:54;;;;;;;;;;;1.70;99.90;;;;;;5179490;27;20006;-68
2022/04/02 00:22:19;;;;;;;;;;;1.30;99.90;;;;;;5179686;27;19967;-68
2022/04/02 00:24:46;;;;;;;;;;;2.60;99.90;;;;;;5179635;27;19923;-68
2022/04/02 00:27:11;;;;;;;;;;;1.30;99.90;;;;;;5179499;27;19922;-68
2022/04/02 00:29:38;;;;;;;;;;;2.00;99.90;;;;;;5161012;27;19930;-68
2022/04/02 00:32:07;;;;;;;;;;;1.30;99.90;;;;;;5179293;27;20386;-67
2022/04/02 00:34:32;;;;;;;;;;;1.30;99.90;;;;;;5179163;27;19923;-67
2022/04/02 00:36:58;;;;;;;;;;;1.30;99.90;;;;;;5179496;27;19923;-68
2022/04/02 00:39:23;;;;;;;;;;;2.90;99.90;;;;;;5179290;27;20018;-68
2022/04/02 00:41:49;;;;;;;;;;;1.90;99.90;;;;;;5179263;27;19933;-68
2022/04/02 00:44:17;;;;;;;;;;;2.60;99.90;;;;;;5179083;27;19978;-68
2022/04/02 00:46:43;;;;;;;;;;;1.30;99.90;;;;;;5178963;27;20013;-67
2022/04/02 00:49:09;;;;;;;;;;;1.10;99.90;;;;;;5178993;27;19977;-69
2022/04/02 00:51:41;;;;;;;;;;;1.50;99.90;;;;;;5179130;27;19923;-68
2022/04/02 00:54:08;;;;;;;;;;;1.20;99.90;;;;;;5179031;27;19927;-67
2022/04/02 00:56:35;;;;;;;;;;;1.20;99.90;;;;;;5159902;27;19985;-68
2022/04/02 00:59:00;;;;;;;;;;;1.20;99.90;;;;;;5178673;27;19923;-68
2022/04/02 01:01:26;;;;;;;;;;;2.50;99.90;;;;;;5160150;27;19971;-68
2022/04/02 01:03:51;;;;;;;;;;;3.30;99.90;;;;;;5178760;27;19929;-68
2022/04/02 01:06:17;;;;;;;;;;;1.90;99.90;;;;;;5178847;27;19930;-68
2022/04/02 01:08:43;;;;;;;;;;;1.20;99.90;;;;;;5178797;27;19930;-68
2022/04/02 01:11:08;;;;;;;;;;;1.10;99.90;;;;;;5178321;27;20433;-68
2022/04/02 01:13:34;;;;;;;;;;;1.10;99.90;;;;;;5142817;27;20014;-68
2022/04/02 01:16:00;;;;;;;;;;;2.90;99.90;;;;;;5178491;27;20297;-69
2022/04/02 01:18:25;;;;;;;;;;;1.00;99.90;;;;;;5178416;27;19923;-68
2022/04/02 01:20:53;;;;;;;;;;;1.00;99.90;;;;;;5178173;27;19930;-70
2022/04/02 01:23:19;;;;;;;;;;;1.00;99.90;;;;;;5178222;27;19923;-67
2022/04/02 01:25:45;;;;;;;;;;;0.90;99.90;;;;;;5178315;27;19930;-67
2022/04/02 01:28:10;;;;;;;;;;;1.00;99.90;;;;;;5177015;27;19923;-68
2022/04/02 01:30:36;;;;;;;;;;;1.60;99.90;;;;;;5159399;27;20009;-67
2022/04/02 01:33:01;;;;;;;;;;;1.00;99.90;;;;;;5177940;27;20377;-68
2022/04/02 01:35:27;;;;;;;;;;;0.40;99.90;;;;;;5177702;27;20284;-68
2022/04/02 01:37:53;;;;;;;;;;;1.00;99.90;;;;;;5177925;27;19923;-67
2022/04/02 01:40:19;;;;;;;;;;;2.70;99.90;;;;;;5177757;27;19986;-67
2022/04/02 01:42:44;;;;;;;;;;;1.00;99.90;;;;;;5177841;27;20025;-68
2022/04/02 01:45:11;;;;;;;;;;;3.30;99.90;;;;;;5177644;27;20010;-68
2022/04/02 01:47:36;;;;;;;;;;;1.70;99.90;;;;;;5177579;27;20021;-69
2022/04/02 01:50:03;;;;;;;;;;;1.00;99.90;;;;;;5177481;27;19976;-68
2022/04/02 01:52:28;;;;;;;;;;;1.10;99.90;;;;;;5159083;27;20014;-67
2022/04/02 01:54:54;;;;;;;;;;;1.10;99.90;;;;;;5159277;27;19979;-67
2022/04/02 01:57:20;;;;;;;;;;;3.20;99.90;;;;;;5177462;27;19927;-69
2022/04/02 01:59:47;;;;;;;;;;;2.20;99.90;;;;;;5177239;27;19930;-68
2022/04/02 02:02:14;;;;;;;;;;;1.00;99.90;;;;;;5177300;27;19923;-70
2022/04/02 02:04:40;;;;;;;;;;;1.80;99.90;;;;;;5158174;27;19933;-67
2022/04/02 02:07:06;;;;;;;;;;;1.10;99.90;;;;;;5177407;27;20013;-67
2022/04/02 02:09:33;;;;;;;;;;;1.10;99.90;;;;;;5177150;27;19930;-67
2022/04/02 02:11:59;;;;;;;;;;;1.10;99.90;;;;;;5158318;27;20382;-67
2022/04/02 02:14:24;;;;;;;;;;;2.90;99.90;;;;;;5176986;27;19923;-68
2022/04/02 02:16:50;;;;;;;;;;;1.00;99.90;;;;;;5176991;27;19926;-68
2022/04/02 02:19:16;;;;;;;;;;;2.80;99.90;;;;;;5176786;27;19978;-68
2022/04/02 02:21:41;;;;;;;;;;;2.20;99.90;;;;;;5176955;27;19923;-68
2022/04/02 02:24:07;;;;;;;;;;;2.50;99.90;;;;;;5177155;27;20342;-69
2022/04/02 02:26:34;;;;;;;;;;;2.30;99.90;;;;;;5158688;27;19943;-69
2022/04/02 02:29:00;;;;;;;;;;;1.80;99.90;;;;;;5176706;27;19926;-68
2022/04/02 02:31:25;;;;;;;;;;;0.70;99.90;;;;;;5176843;27;20009;-68
2022/04/02 02:36:35;;;;;;;;;;;1.30;99.90;;;;;;5176831;27;19930;-67
2022/04/02 02:39:00;;;;;;;;;;;0.90;99.90;;;;;;5176608;27;19923;-67
2022/04/02 02:41:26;;;;;;;;;;;0.70;99.90;;;;;;5176656;27;19923;-68
2022/04/02 02:43:52;;;;;;;;;;;1.90;99.90;;;;;;5176467;27;19981;-67
2022/04/02 02:46:17;;;;;;;;;;;0.80;99.90;;;;;;5176444;27;19972;-70
2022/04/02 02:48:46;;;;;;;;;;;0.70;99.90;;;;;;5176416;27;19994;-68
2022/04/02 02:51:12;;;;;;;;;;;-0.70;99.90;;;;;;5176473;27;20013;-68
2022/04/02 02:53:38;;;;;;;;;;;2.00;99.90;;;;;;5158202;27;20516;-68
2022/04/02 02:56:04;;;;;;;;;;;0.70;99.90;;;;;;5176386;27;19923;-68
2022/04/02 02:58:29;;;;;;;;;;;0.70;99.90;;;;;;5157904;27;19971;-70
2022/04/02 03:00:55;;;;;;;;;;;0.70;99.90;;;;;;5176176;27;20384;-69
2022/04/02 03:03:22;;;;;;;;;;;0.60;99.90;;;;;;5176692;27;19923;-68
2022/04/02 03:05:50;;;;;;;;;;;2.50;99.90;;;;;;5176166;27;19923;-68
2022/04/02 03:08:16;;;;;;;;;;;-1.00;99.90;;;;;;5157730;27;19923;-68
2022/04/02 03:10:42;;;;;;;;;;;1.70;99.90;;;;;;5175834;27;20282;-70
2022/04/02 03:13:08;;;;;;;;;;;0.50;99.90;;;;;;5175872;27;19929;-68
2022/04/02 03:15:34;;;;;;;;;;;0.40;99.90;;;;;;5175993;27;19974;-67
2022/04/02 03:18:04;;;;;;;;;;;0.30;99.90;;;;;;5157668;27;19978;-67
2022/04/02 03:20:29;;;;;;;;;;;0.20;99.90;;;;;;5175821;27;19990;-68
2022/04/02 03:22:55;;;;;;;;;;;1.20;99.90;;;;;;5176243;27;20369;-68
2022/04/02 03:25:23;;;;;;;;;;;1.10;99.90;;;;;;5176125;27;20372;-68
2022/04/02 03:27:48;;;;;;;;;;;0.20;99.90;;;;;;5157690;27;19922;-67
2022/04/02 03:30:18;;;;;;;;;;;1.60;99.90;;;;;;5175876;27;20336;-70
2022/04/02 03:32:44;;;;;;;;;;;1.90;99.90;;;;;;5176111;27;20027;-69
2022/04/02 03:35:11;;;;;;;;;;;0.20;99.90;;;;;;5157481;27;20385;-68
2022/04/02 03:37:37;;;;;;;;;;;0.20;99.90;;;;;;5176273;27;19922;-68
2022/04/02 03:40:05;;;;;;;;;;;0.50;99.90;;;;;;5176093;27;19923;-68
2022/04/02 03:42:30;;;;;;;;;;;0.30;99.90;;;;;;5157837;27;19923;-71
2022/04/02 03:44:56;;;;;;;;;;;1.30;99.90;;;;;;5175964;27;19930;-68
2022/04/02 03:47:24;;;;;;;;;;;1.00;99.90;;;;;;5157430;27;19962;-67
2022/04/02 03:49:53;;;;;;;;;;;0.30;99.90;;;;;;5156958;27;19923;-67
2022/04/02 03:52:19;;;;;;;;;;;0.30;99.90;;;;;;5180311;27;19927;-68
2022/04/02 03:54:45;;;;;;;;;;;0.30;99.90;;;;;;5180225;27;20460;-68
2022/04/02 03:57:12;;;;;;;;;;;0.40;99.90;;;;;;5180222;27;19930;-67
2022/04/02 03:59:38;;;;;;;;;;;0.40;99.90;;;;;;5179988;27;19967;-68
2022/04/02 04:02:06;;;;;;;;;;;0.40;99.90;;;;;;5161651;27;19927;-68
2022/04/02 04:04:32;;;;;;;;;;;0.40;99.90;;;;;;5143730;27;19929;-68
2022/04/02 04:06:57;;;;;;;;;;;-1.60;99.90;;;;;;5161486;27;20281;-68
2022/04/02 04:09:23;;;;;;;;;;;0.20;99.90;;;;;;5179948;27;19923;-68
2022/04/02 04:11:49;;;;;;;;;;;0.40;99.90;;;;;;5160594;27;19933;-68
2022/04/02 04:14:15;;;;;;;;;;;0.50;99.90;;;;;;5144140;27;19922;-69
2022/04/02 04:16:43;;;;;;;;;;;0.50;99.90;;;;;;5179793;27;19923;-67
2022/04/02 04:19:09;;;;;;;;;;;0.50;99.90;;;;;;5179455;27;19931;-68
2022/04/02 04:21:35;;;;;;;;;;;0.50;99.90;;;;;;5179765;27;19922;-69
2022/04/02 04:24:00;;;;;;;;;;;1.50;99.90;;;;;;5161271;27;19923;-68
2022/04/02 04:26:26;;;;;;;;;;;0.50;99.90;;;;;;5160746;27;19929;-68
2022/04/02 04:28:52;;;;;;;;;;;0.60;99.90;;;;;;5179510;27;19923;-68
2022/04/02 04:31:18;;;;;;;;;;;0.60;99.90;;;;;;5179502;27;19930;-68
2022/04/02 04:33:44;;;;;;;;;;;0.30;99.90;;;;;;5160987;27;19975;-67
2022/04/02 04:36:10;;;;;;;;;;;1.30;99.90;;;;;;5160454;27;20373;-67
2022/04/02 04:38:36;;;;;;;;;;;1.10;99.90;;;;;;5179422;27;19965;-68
2022/04/02 04:41:02;;;;;;;;;;;0.10;99.90;;;;;;5160657;27;20437;-68
2022/04/02 04:43:28;;;;;;;;;;;0.10;99.90;;;;;;5160886;27;20055;-68
2022/04/02 04:45:53;;;;;;;;;;;0.10;99.90;;;;;;5160573;27;20304;-67
2022/04/02 04:48:20;;;;;;;;;;;1.20;99.90;;;;;;5179094;27;20404;-67
2022/04/02 04:50:46;;;;;;;;;;;1.80;99.90;;;;;;5178939;27;19929;-68
2022/04/02 04:53:12;;;;;;;;;;;0.30;99.90;;;;;;5179117;27;20025;-68
2022/04/02 04:55:37;;;;;;;;;;;0.20;99.90;;;;;;5179140;27;19923;-68
2022/04/02 04:58:03;;;;;;;;;;;0.20;99.90;;;;;;5179057;27;19929;-67
2022/04/02 05:00:28;;;;;;;;;;;1.40;99.90;;;;;;5160223;27;20403;-67
2022/04/02 05:02:54;;;;;;;;;;;0.00;99.90;;;;;;5177662;27;19923;-68
2022/04/02 05:05:19;;;;;;;;;;;-0.40;99.90;;;;;;5178733;27;19923;-70
2022/04/02 05:07:45;;;;;;;;;;;0.00;99.90;;;;;;5178906;27;19923;-68
2022/04/02 05:10:11;;;;;;;;;;;0.90;99.90;;;;;;5178531;27;19966;-68
2022/04/02 05:12:37;;;;;;;;;;;1.00;99.90;;;;;;5178685;27;19923;-70
2022/04/02 05:15:04;;;;;;;;;;;0.00;99.90;;;;;;5178612;27;19922;-68
2022/04/02 05:17:30;;;;;;;;;;;0.00;99.90;;;;;;5178559;27;19981;-67
2022/04/02 05:19:56;;;;;;;;;;;0.70;99.90;;;;;;5142440;27;19930;-68
2022/04/02 05:22:22;;;;;;;;;;;0.30;99.90;;;;;;5178511;27;20276;-69
2022/04/02 05:24:47;;;;;;;;;;;0.00;99.90;;;;;;5178542;27;20369;-68
2022/04/02 05:27:13;;;;;;;;;;;0.00;99.90;;;;;;5178455;27;19923;-68
2022/04/02 05:29:38;;;;;;;;;;;0.00;99.90;;;;;;5159803;27;19949;-67
2022/04/02 05:32:04;;;;;;;;;;;1.90;99.90;;;;;;5159984;27;20293;-70
2022/04/02 05:34:30;;;;;;;;;;;0.00;99.90;;;;;;5178111;27;19922;-68
2022/04/02 05:36:56;;;;;;;;;;;1.30;99.90;;;;;;5178038;27;20288;-69
2022/04/02 05:39:22;;;;;;;;;;;-0.10;99.90;;;;;;5159579;27;19922;-68
2022/04/02 05:41:48;;;;;;;;;;;0.00;99.90;;;;;;5159878;27;19927;-68
2022/04/02 05:44:14;;;;;;;;;;;-0.10;99.90;;;;;;5177809;27;20377;-67
2022/04/02 05:46:39;;;;;;;;;;;0.00;99.90;;;;;;5177976;27;19941;-69
2022/04/02 05:49:05;;;;;;;;;;;0.90;99.90;;;;;;5177907;27;19973;-70
2022/04/02 05:51:31;;;;;;;;;;;1.00;99.90;;;;;;5177828;27;19923;-68
2022/04/02 05:53:57;;;;;;;;;;;-0.20;99.90;;;;;;5177986;27;19929;-67
2022/04/02 05:56:23;;;;;;;;;;;0.10;99.90;;;;;;5159622;27;19930;-67
2022/04/02 05:58:49;;;;;;;;;;;0.70;99.90;;;;;;5158619;27;20358;-70
2022/04/02 06:01:14;;;;;;;;;;;0.20;99.90;;;;;;5177630;27;20059;-70
2022/04/02 06:03:40;;;;;;;;;;;0.50;99.90;;;;;;5177616;27;20009;-67
2022/04/02 06:06:06;;;;;;;;;;;0.90;99.90;;;;;;5177523;27;19988;-67
2022/04/02 06:08:32;;;;;;;;;;;1.30;99.90;;;;;;5177434;27;19934;-68
2022/04/02 06:10:57;;;;;;;;;;;0.20;99.90;;;;;;5177250;27;19930;-67
2022/04/02 06:13:23;;;;;;;;;;;0.20;99.90;;;;;;5177168;27;19976;-67
2022/04/02 06:15:49;;;;;;;;;;;0.40;99.90;;;;;;5177422;27;19923;-69
2022/04/02 06:18:18;;;;;;;;;;;0.40;99.90;;;;;;5158756;27;19923;-67
2022/04/02 06:20:48;;;;;;;;;;;0.40;99.90;;;;;;5177162;27;19923;-67
2022/04/02 06:23:14;;;;;;;;;;;1.80;99.90;;;;;;5176100;27;19923;-68
2022/04/02 06:25:39;;;;;;;;;;;0.60;99.90;;;;;;5176811;27;19933;-69
2022/04/02 06:28:05;;;;;;;;;;;1.30;99.90;;;;;;5177056;27;19949;-68
2022/04/02 06:30:31;;;;;;;;;;;0.60;99.90;;;;;;5177033;27;19922;-67
2022/04/02 06:32:56;;;;;;;;;;;2.80;99.90;;;;;;5176930;27;20302;-69
2022/04/02 06:35:22;;;;;;;;;;;0.70;99.90;;;;;;5176895;27;19931;-68
2022/04/02 06:37:48;;;;;;;;;;;2.60;99.90;;;;;;5176751;27;19930;-67
2022/04/02 06:40:14;;;;;;;;;;;2.40;99.90;;;;;;5176852;27;19923;-69
2022/04/02 06:42:39;;;;;;;;;;;3.10;99.90;;;;;;5176911;27;19978;-67
2022/04/02 06:45:05;;;;;;;;;;;1.00;99.90;;;;;;5158023;27;19971;-66
2022/04/02 06:47:31;;;;;;;;;;;1.10;99.90;;;;;;5176778;27;19923;-68
2022/04/02 06:49:57;;;;;;;;;;;1.10;99.90;;;;;;5176482;27;20434;-68
2022/04/02 06:52:23;;;;;;;;;;;1.20;99.90;;;;;;5158358;27;19922;-70
2022/04/02 06:54:49;;;;;;;;;;;1.20;99.90;;;;;;5158040;27;19931;-67
2022/04/02 06:57:18;;;;;;;;;;;1.30;99.90;;;;;;5176739;27;19923;-67
2022/04/02 06:59:44;;;;;;;;;;;1.40;99.90;;;;;;5157516;27;19967;-68
2022/04/02 07:02:10;;;;;;;;;;;2.00;99.90;;;;;;5176379;27;19926;-68
2022/04/02 07:04:35;;;;;;;;;;;1.40;99.90;;;;;;5157791;27;20022;-68
2022/04/02 07:07:01;;;;;;;;;;;2.50;99.90;;;;;;5150632;27;19962;-67
2022/04/02 07:09:26;;;;;;;;;;;3.20;99.90;;;;;;5164390;27;20293;-68
2022/04/02 07:11:52;;;;;;;;;;;1.70;99.90;;;;;;5161937;27;20377;-67
2022/04/02 07:14:18;;;;;;;;;;;1.80;99.90;;;;;;5173572;27;20408;-67
2022/04/02 07:16:43;;;;;;;;;;;2.80;99.90;;;;;;5155294;27;19974;-68
2022/04/02 07:19:09;;;;;;;;;;;3.80;99.90;;;;;;5155290;27;20225;-68
2022/04/02 07:21:35;;;;;;;;;;;2.00;99.90;;;;;;5155479;27;19977;-70
2022/04/02 07:24:01;;;;;;;;;;;2.80;99.90;;;;;;5155126;27;19923;-70
2022/04/02 07:26:28;;;;;;;;;;;3.70;99.90;;;;;;5154855;27;19927;-69
2022/04/02 07:28:55;;;;;;;;;;;4.20;99.90;;;;;;5154535;27;19923;-67
2022/04/02 07:31:21;;;;;;;;;;;2.30;99.90;;;;;;5155106;27;19970;-68
2022/04/02 07:33:46;;;;;;;;;;;2.40;99.90;;;;;;5155171;27;20038;-67
2022/04/02 07:36:32;;;;;;;;;;;3.20;99.90;;;;;;5155060;27;19923;-68
2022/04/02 07:39:01;;;;;;;;;;;4.00;99.90;;;;;;5034358;28;19932;-67
2022/04/02 07:41:30;;;;;;;;;;;3.90;99.90;;;;;;5062773;28;19932;-68
2022/04/02 07:43:58;;;;;;;;;;;2.70;99.90;;;;;;5054397;28;19925;-68
2022/04/02 07:46:26;;;;;;;;;;;3.40;99.90;;;;;;5071080;28;19931;-69
2022/04/02 07:48:52;;;;;;;;;;;2.90;99.90;;;;;;5071001;28;20029;-68
2022/04/02 07:51:20;;;;;;;;;;;3.30;99.90;;;;;;5070807;28;20418;-68
2022/04/02 07:53:50;;;;;;;;;;;3.00;99.90;;;;;;5070919;28;19932;-69
2022/04/02 07:56:20;;;;;;;;;;;3.20;99.90;;;;;;5070895;28;19925;-68
2022/04/02 07:59:08;;;;;;;;;;;5.20;99.90;;;;;;5054463;28;20007;-68
2022/04/02 08:01:34;;;;;;;;;;;3.30;99.90;;;;;;5070534;28;19975;-67
2022/04/02 08:04:03;;;;;;;;;;;3.50;99.90;;;;;;5070765;28;20010;-68
2022/04/02 08:06:31;;;;;;;;;;;4.30;99.90;;;;;;5070836;28;19972;-69
2022/04/02 08:08:58;;;;;;;;;;;4.20;99.90;;;;;;5070755;28;19925;-68
2022/04/02 08:11:25;;;;;;;;;;;5.30;99.90;;;;;;5070562;28;19959;-68
2022/04/02 08:14:07;;;;;;;;;;;3.90;99.90;;;;;;5070558;28;19935;-67
2022/04/02 08:16:34;;;;;;;;;;;3.90;99.90;;;;;;5129333;27;19930;-68
2022/04/02 08:19:01;;;;;;;;;;;4.00;99.90;;;;;;5136320;27;19927;-68
2022/04/02 08:21:27;;;;;;;;;;;4.10;99.90;;;;;;5154737;27;20362;-70
2022/04/02 08:23:52;;;;;;;;;;;5.20;99.90;;;;;;5154633;27;20026;-70
2022/04/02 08:26:27;;;;;;;;;;;4.80;99.90;;;;;;5154646;27;19930;-68
2022/04/02 08:29:22;;;;;;;;;;;4.20;99.90;;;;;;5136191;27;20014;-70
2022/04/02 08:32:07;;;;;;;;;;;4.30;99.90;;;;;;5050741;28;19924;-70
2022/04/02 08:34:51;;;;;;;;;;;4.30;99.90;;;;;;5034220;28;20276;-68
2022/04/02 08:37:39;;;;;;;;;;;4.30;99.90;;;;;;5052727;28;19976;-68
2022/04/02 08:40:23;;;;;;;;;;;4.30;99.90;;;;;;5037396;28;19970;-68
2022/04/02 08:42:55;;;;;;;;;;;4.30;99.90;;;;;;5053927;28;20438;-70
2022/04/02 08:45:29;;;;;;;;;;;4.40;99.90;;;;;;5053976;28;20383;-68
2022/04/02 08:48:13;;;;;;;;;;;4.40;99.90;;;;;;5054077;28;19925;-69
2022/04/02 08:50:42;;;;;;;;;;;4.40;99.90;;;;;;5037695;28;19970;-67
2022/04/02 08:53:23;;;;;;;;;;;4.40;99.90;;;;;;5053873;28;20019;-70
2022/04/02 08:55:49;;;;;;;;;;;4.30;99.90;;;;;;5053947;28;20498;-68
2022/04/02 08:58:18;;;;;;;;;;;4.30;99.90;;;;;;5053923;28;19925;-68
2022/04/02 09:00:45;;;;;;;;;;;4.20;99.90;;;;;;5053264;28;19925;-69
2022/04/02 09:03:16;;;;;;;;;;;4.10;99.90;;;;;;5053880;28;19948;-70
2022/04/02 09:05:48;;;;;;;;;;;3.90;99.90;;;;;;5037338;28;19924;-69
2022/04/02 09:08:32;;;;;;;;;;;3.80;99.90;;;;;;5106984;27;20301;-70
2022/04/02 09:11:16;;;;;;;;;;;3.80;99.90;;;;;;5157494;27;19923;-68
2022/04/02 09:13:56;;;;;;;;;;;3.60;99.90;;;;;;5157797;27;19923;-68
2022/04/02 09:16:34;;;;;;;;;;;3.40;99.90;;;;;;5157773;27;19931;-68
2022/04/02 09:19:14;;;;;;;;;;;3.30;99.90;;;;;;5157620;27;19927;-69
2022/04/02 09:21:48;;;;;;;;;;;3.00;99.90;;;;;;5139197;27;20387;-67
2022/04/02 09:24:20;;;;;;;;;;;2.90;99.90;;;;;;5139337;27;19923;-68
2022/04/02 09:27:05;;;;;;;;;;;4.10;99.90;;;;;;5157459;27;20397;-69
2022/04/02 09:29:36;;;;;;;;;;;2.70;99.90;;;;;;5138828;27;19923;-68
2022/04/02 09:32:16;;;;;;;;;;;3.60;99.90;;;;;;5157270;27;19923;-68
2022/04/02 09:34:44;;;;;;;;;;;2.90;99.90;;;;;;5157540;27;20017;-67
2022/04/02 09:37:35;;;;;;;;;;;3.20;99.90;;;;;;5157325;27;19975;-68
2022/04/02 09:40:03;;;;;;;;;;;3.00;99.90;;;;;;5138845;27;19923;-68
2022/04/02 09:42:45;;;;;;;;;;;3.10;99.90;;;;;;5156991;27;19930;-68
2022/04/02 09:45:14;;;;;;;;;;;3.20;99.90;;;;;;5157177;27;20026;-70
2022/04/02 09:47:46;;;;;;;;;;;3.40;99.90;;;;;;5138217;27;20385;-67
2022/04/02 09:50:13;;;;;;;;;;;3.50;99.90;;;;;;5157135;27;20274;-67
2022/04/02 09:52:44;;;;;;;;;;;3.60;99.90;;;;;;5156879;27;20015;-68
2022/04/02 09:55:11;;;;;;;;;;;3.80;99.90;;;;;;5156759;27;19927;-68
2022/04/02 09:57:40;;;;;;;;;;;4.10;99.90;;;;;;5157092;27;19923;-71
2022/04/02 10:00:07;;;;;;;;;;;6.00;99.90;;;;;;5156764;27;19981;-68
2022/04/02 10:02:32;;;;;;;;;;;4.30;99.90;;;;;;5156711;27;20368;-67
2022/04/02 10:05:12;;;;;;;;;;;5.50;99.90;;;;;;5137631;27;20371;-69
2022/04/02 10:07:54;;;;;;;;;;;4.50;99.90;;;;;;5156551;27;19945;-68
2022/04/02 10:10:25;;;;;;;;;;;4.50;99.90;;;;;;5156567;27;20016;-71
2022/04/02 10:12:52;;;;;;;;;;;6.00;99.90;;;;;;5138046;27;19923;-68
2022/04/02 10:15:19;;;;;;;;;;;4.60;99.90;;;;;;5156076;27;19962;-70
2022/04/02 10:17:50;;;;;;;;;;;4.70;99.90;;;;;;5156465;27;20315;-68
2022/04/02 10:20:18;;;;;;;;;;;4.70;99.90;;;;;;5156206;27;20438;-68
2022/04/02 10:22:45;;;;;;;;;;;4.80;99.90;;;;;;5156620;27;19969;-69
2022/04/02 10:25:11;;;;;;;;;;;5.00;99.90;;;;;;5156333;27;20326;-69
2022/04/02 10:27:38;;;;;;;;;;;6.30;99.90;;;;;;5156374;27;20025;-68
2022/04/02 10:30:07;;;;;;;;;;;4.90;99.90;;;;;;5156173;27;19923;-68
2022/04/02 10:32:37;;;;;;;;;;;4.70;99.90;;;;;;5159887;27;19930;-68
2022/04/02 10:35:05;;;;;;;;;;;4.70;99.90;;;;;;5156060;27;19923;-68
2022/04/02 10:37:36;;;;;;;;;;;4.70;99.90;;;;;;5120307;27;19931;-67
2022/04/02 10:40:07;;;;;;;;;;;4.70;99.90;;;;;;5160220;27;19930;-68
2022/04/02 10:42:34;;;;;;;;;;;4.70;99.90;;;;;;5137714;27;20048;-68
2022/04/02 10:45:02;;;;;;;;;;;5.60;99.90;;;;;;5166180;27;19942;-67
2022/04/02 10:47:28;;;;;;;;;;;4.80;99.90;;;;;;5176710;27;19929;-68
2022/04/02 10:50:00;;;;;;;;;;;4.90;99.90;;;;;;5176575;27;20430;-70
2022/04/02 10:52:26;;;;;;;;;;;5.50;99.90;;;;;;5176897;27;19967;-69
2022/04/02 10:54:52;;;;;;;;;;;5.20;99.90;;;;;;5176556;27;20391;-70
2022/04/02 10:57:18;;;;;;;;;;;4.80;99.90;;;;;;5176583;27;19929;-68
2022/04/02 10:59:46;;;;;;;;;;;4.70;98.40;;;;;;5175534;27;19923;-67
2022/04/02 11:02:22;;;;;;;;;;;4.80;99.90;;;;;;5176317;27;19923;-69
2022/04/02 11:05:03;;;;;;;;;;;4.50;99.90;;;;;;5176635;27;19923;-68
2022/04/02 11:07:35;;;;;;;;;;;4.90;99.90;;;;;;5176432;27;19968;-69
2022/04/02 11:10:01;;;;;;;;;;;4.50;99.90;;;;;;5176363;27;19922;-71
2022/04/02 11:12:41;;;;;;;;;;;6.40;99.90;;;;;;5157501;27;20369;-69
2022/04/02 11:15:13;;;;;;;;;;;4.60;98.30;;;;;;5176125;27;20001;-67
2022/04/02 11:17:43;;;;;;;;;;;4.60;99.90;;;;;;5176438;27;19967;-68
2022/04/02 11:20:13;;;;;;;;;;;4.70;93.00;;;;;;5176288;27;19930;-68
2022/04/02 11:22:57;;;;;;;;;;;4.70;92.40;;;;;;5176190;27;19926;-69
2022/04/02 11:25:31;;;;;;;;;;;4.80;94.10;;;;;;5176074;27;19953;-68
2022/04/02 11:28:16;;;;;;;;;;;4.90;87.40;;;;;;5176219;27;19963;-69
2022/04/02 11:30:41;;;;;;;;;;;4.90;75.40;;;;;;5176109;27;19923;-68
2022/04/02 11:33:08;;;;;;;;;;;5.30;75.20;;;;;;5176099;27;19943;-68
2022/04/02 11:35:38;;;;;;;;;;;4.80;72.60;;;;;;5175602;27;19931;-69
2022/04/02 11:38:07;;;;;;;;;;;4.20;71.90;;;;;;5175915;27;19923;-67
2022/04/02 11:40:33;;;;;;;;;;;5.10;67.20;;;;;;5176110;27;20025;-69
2022/04/02 11:43:00;;;;;;;;;;;5.30;71.10;;;;;;5174633;27;19929;-69
2022/04/02 11:45:27;;;;;;;;;;;5.60;65.50;;;;;;5175963;27;19923;-69
2022/04/02 11:47:57;;;;;;;;;;;5.80;70.10;;;;;;5174590;27;19930;-69
2022/04/02 11:50:25;;;;;;;;;;;6.70;86.50;;;;;;5175877;27;19930;-69
2022/04/02 11:52:50;;;;;;;;;;;4.70;99.90;;;;;;5176174;27;20269;-68
2022/04/02 11:55:16;;;;;;;;;;;6.50;99.90;;;;;;5157717;27;19923;-69
2022/04/02 11:57:59;;;;;;;;;;;6.40;99.90;;;;;;5175993;27;19922;-71
2022/04/02 12:00:26;;;;;;;;;;;5.40;95.00;;;;;;5175761;27;19930;-69
2022/04/02 12:02:52;;;;;;;;;;;5.40;98.00;;;;;;5175829;27;19930;-68
2022/04/02 12:05:20;;;;;;;;;;;5.30;90.00;;;;;;5175719;27;19923;-69
2022/04/02 12:07:52;;;;;;;;;;;6.20;80.20;;;;;;5175870;27;19930;-68
2022/04/02 12:10:19;;;;;;;;;;;5.20;70.80;;;;;;5175683;27;19933;-68
2022/04/02 12:12:45;;;;;;;;;;;5.60;69.10;;;;;;5179148;27;19975;-69
2022/04/02 12:15:11;;;;;;;;;;;5.20;66.40;;;;;;5179165;27;20013;-68
2022/04/02 12:17:38;;;;;;;;;;;5.30;65.90;;;;;;5161154;27;19923;-70
2022/04/02 12:20:04;;;;;;;;;;;5.30;63.90;;;;;;5179448;27;19929;-69
2022/04/02 12:22:31;;;;;;;;;;;5.30;65.10;;;;;;5179816;27;19923;-70
2022/04/02 12:25:01;;;;;;;;;;;5.30;59.90;;;;;;5179741;27;19965;-69
2022/04/02 12:27:31;;;;;;;;;;;5.30;61.20;;;;;;5179651;27;19922;-70
2022/04/02 12:29:57;;;;;;;;;;;5.20;63.30;;;;;;5179418;27;19923;-68
2022/04/02 12:32:44;;;;;;;;;;;6.40;65.20;;;;;;5179482;27;19926;-69
2022/04/02 12:35:14;;;;;;;;;;;5.30;65.10;;;;;;5179563;27;20021;-68
2022/04/02 12:37:43;;;;;;;;;;;5.40;65.50;;;;;;5179397;27;20393;-68
2022/04/02 12:40:25;;;;;;;;;;;5.40;65.00;;;;;;5160374;27;19962;-70
2022/04/02 12:42:55;;;;;;;;;;;5.50;67.10;;;;;;5179133;27;19922;-68
2022/04/02 12:45:22;;;;;;;;;;;5.50;64.90;;;;;;5159946;27;20285;-68
2022/04/02 12:48:00;;;;;;;;;;;5.60;65.10;;;;;;5160951;27;19975;-69
2022/04/02 12:50:26;;;;;;;;;;;5.60;68.30;;;;;;5179194;27;20438;-70
2022/04/02 12:52:52;;;;;;;;;;;5.50;66.90;;;;;;5179121;27;19922;-68
2022/04/02 12:55:18;;;;;;;;;;;6.30;66.30;;;;;;5178996;27;19929;-68
2022/04/02 12:57:55;;;;;;;;;;;5.60;65.60;;;;;;5160560;27;20396;-68
2022/04/02 13:00:25;;;;;;;;;;;5.60;65.60;;;;;;5178827;27;19930;-68
2022/04/02 13:02:54;;;;;;;;;;;5.60;62.90;;;;;;5178977;27;19922;-71
2022/04/02 13:05:20;;;;;;;;;;;5.60;61.30;;;;;;5178862;27;20038;-68
2022/04/02 13:08:04;;;;;;;;;;;5.50;61.10;;;;;;5160395;27;20019;-68
2022/04/02 13:10:30;;;;;;;;;;;5.50;63.90;;;;;;5178411;27;19933;-70
2022/04/02 13:13:02;;;;;;;;;;;5.40;63.70;;;;;;5178791;27;20277;-68
2022/04/02 13:15:28;;;;;;;;;;;5.40;65.30;;;;;;5178513;27;19929;-68
2022/04/02 13:20:41;;;;;;;;;;;5.60;64.70;;;;;;5154741;27;19968;-68
2022/04/02 13:23:07;;;;;;;;;;;5.70;62.70;;;;;;5161250;27;19927;-68
2022/04/02 13:25:37;;;;;;;;;;;5.70;61.50;;;;;;5141010;27;20382;-66
2022/04/02 13:28:26;;;;;;;;;;;5.80;59.40;;;;;;5161122;27;19923;-69
2022/04/02 13:30:53;;;;;;;;;;;5.80;59.10;;;;;;5176869;27;19923;-69
2022/04/02 13:33:36;;;;;;;;;;;5.90;63.40;;;;;;5158962;27;19965;-71
2022/04/02 13:36:05;;;;;;;;;;;6.00;64.50;;;;;;5178338;27;19923;-71
2022/04/02 13:38:37;;;;;;;;;;;6.10;62.90;;;;;;5178197;27;20010;-67
2022/04/02 13:41:03;;;;;;;;;;;6.00;60.80;;;;;;5159330;27;20388;-71
2022/04/02 13:43:36;;;;;;;;;;;5.90;61.70;;;;;;5178022;27;19930;-70
2022/04/02 13:46:06;;;;;;;;;;;5.90;61.80;;;;;;5177769;27;19923;-68
2022/04/02 13:48:34;;;;;;;;;;;5.80;60.80;;;;;;5159554;27;19975;-71
2022/04/02 13:50:59;;;;;;;;;;;5.80;59.60;;;;;;5176004;27;20018;-70
2022/04/02 13:53:35;;;;;;;;;;;5.90;60.80;;;;;;5156117;27;19974;-69
2022/04/02 13:56:06;;;;;;;;;;;5.80;62.00;;;;;;5176306;27;19923;-69
2022/04/02 13:58:34;;;;;;;;;;;5.80;65.10;;;;;;5177689;27;19926;-68
2022/04/02 14:01:01;;;;;;;;;;;5.90;59.70;;;;;;5177368;27;19934;-69
2022/04/02 14:03:27;;;;;;;;;;;5.80;59.50;;;;;;5177757;27;20017;-69
2022/04/02 14:05:55;;;;;;;;;;;6.00;59.60;;;;;;5177686;27;20377;-70
2022/04/02 14:08:23;;;;;;;;;;;5.60;58.00;;;;;;5159166;27;19923;-68
2022/04/02 14:10:49;;;;;;;;;;;5.50;58.30;;;;;;5177345;27;20399;-68
2022/04/02 14:13:16;;;;;;;;;;;6.00;59.80;;;;;;5177309;27;19923;-68
2022/04/02 14:15:49;;;;;;;;;;;5.90;62.30;;;;;;5159144;27;19926;-68
2022/04/02 14:18:19;;;;;;;;;;;5.50;63.80;;;;;;5177371;27;19923;-69
2022/04/02 14:20:47;;;;;;;;;;;5.50;63.80;;;;;;5177401;27;19930;-69
2022/04/02 14:23:21;;;;;;;;;;;5.60;62.90;;;;;;5177215;27;19930;-68
2022/04/02 14:26:09;;;;;;;;;;;5.60;64.80;;;;;;5176974;27;20506;-69
2022/04/02 14:28:35;;;;;;;;;;;5.60;66.90;;;;;;5177187;27;19929;-69
2022/04/02 14:31:07;;;;;;;;;;;5.80;67.00;;;;;;5177095;27;20292;-68
2022/04/02 14:33:50;;;;;;;;;;;5.80;63.00;;;;;;5158644;27;19923;-68
2022/04/02 14:36:28;;;;;;;;;;;5.80;63.50;;;;;;5177012;27;19982;-70
2022/04/02 14:39:11;;;;;;;;;;;5.60;66.80;;;;;;5177103;27;19923;-69
2022/04/02 14:41:49;;;;;;;;;;;5.60;65.40;;;;;;5176940;27;19923;-69